createdAt,value
2022-10-22T00:02:59.330Z,12.44
2022-10-22T00:06:08.111Z,12.48
2022-10-22T00:09:16.346Z,12.53
2022-10-22T00:12:31.842Z,12.54
2022-10-22T00:15:40.303Z,12.47
2022-10-22T00:18:48.969Z,12.48
2022-10-22T00:21:57.262Z,12.46
2022-10-22T00:25:12.273Z,12.48
2022-10-22T00:28:20.313Z,12.51
2022-10-22T00:31:35.315Z,12.52
2022-10-22T00:34:50.323Z,12.51
2022-10-22T00:37:58.354Z,12.52
2022-10-22T00:41:14.314Z,12.54
2022-10-22T00:44:36.084Z,12.54
2022-10-22T00:48:15.291Z,12.53
2022-10-22T00:51:17.388Z,12.49
2022-10-22T00:54:32.315Z,12.50
2022-10-22T00:57:48.311Z,12.52
2022-10-22T01:00:56.408Z,12.50
2022-10-22T01:04:05.071Z,12.50
2022-10-22T01:07:13.305Z,12.39
2022-10-22T01:10:51.303Z,12.38
2022-10-22T01:14:08.595Z,12.37
2022-10-22T01:17:41.810Z,12.40
2022-10-22T01:21:08.114Z,12.43
2022-10-22T01:24:30.331Z,12.44
2022-10-22T01:28:01.314Z,12.39
2022-10-22T01:31:20.393Z,12.30
2022-10-22T01:34:23.738Z,12.29
2022-10-22T01:37:43.593Z,12.31
2022-10-22T01:40:47.440Z,12.32
2022-10-22T01:44:02.324Z,12.37
2022-10-22T01:47:16.241Z,12.37
2022-10-22T01:50:53.347Z,12.33
2022-10-22T01:54:25.371Z,12.32
2022-10-22T01:57:43.409Z,12.35
2022-10-22T02:01:10.367Z,12.32
2022-10-22T02:04:32.227Z,12.28
2022-10-22T02:07:46.344Z,12.15
2022-10-22T02:11:09.330Z,12.20
2022-10-22T02:14:19.851Z,12.21
2022-10-22T02:17:29.332Z,12.22
2022-10-22T02:20:48.390Z,12.17
2022-10-22T02:23:57.271Z,12.09
2022-10-22T02:27:16.343Z,12.06
2022-10-22T02:30:25.833Z,12.07
2022-10-22T02:33:38.368Z,12.07
2022-10-22T02:36:50.357Z,12.03
2022-10-22T02:40:00.318Z,12.02
2022-10-22T02:43:08.967Z,12.01
2022-10-22T02:46:18.383Z,12.00
2022-10-22T02:49:33.352Z,11.95
2022-10-22T02:52:41.746Z,11.86
2022-10-22T02:55:50.011Z,11.83
2022-10-22T02:58:58.364Z,11.71
2022-10-22T03:02:14.369Z,11.70
2022-10-22T03:05:16.139Z,11.74
2022-10-22T03:08:30.393Z,11.73
2022-10-22T03:11:38.644Z,11.70
2022-10-22T03:14:53.387Z,11.65
2022-10-22T03:17:55.235Z,11.62
2022-10-22T03:21:28.382Z,11.55
2022-10-22T03:24:42.386Z,11.55
2022-10-22T03:28:00.388Z,11.54
2022-10-22T03:31:02.202Z,11.48
2022-10-22T03:34:17.383Z,11.49
2022-10-22T03:37:19.740Z,11.55
2022-10-22T03:40:34.412Z,11.58
2022-10-22T03:43:37.819Z,11.51
2022-10-22T03:46:52.422Z,11.49
2022-10-22T03:49:54.220Z,11.49
2022-10-22T03:53:10.399Z,11.44
2022-10-22T03:56:12.801Z,11.35
2022-10-22T03:59:27.411Z,11.35
2022-10-22T04:02:35.379Z,11.37
2022-10-22T04:05:43.991Z,11.41
2022-10-22T04:08:52.522Z,11.44
2022-10-22T04:12:08.044Z,11.51
2022-10-22T04:15:23.381Z,11.55
2022-10-22T04:18:31.978Z,11.54
2022-10-22T04:21:41.423Z,11.53
2022-10-22T04:24:56.412Z,11.52
2022-10-22T04:27:58.168Z,11.52
2022-10-22T04:31:29.478Z,11.50
2022-10-22T04:34:31.211Z,11.48
2022-10-22T04:37:46.416Z,11.49
2022-10-22T04:40:55.066Z,11.46
2022-10-22T04:44:04.385Z,11.42
2022-10-22T04:47:12.937Z,11.39
2022-10-22T04:50:21.433Z,11.36
2022-10-22T04:53:30.115Z,11.34
2022-10-22T04:56:39.398Z,11.31
2022-10-22T04:59:54.474Z,11.31
2022-10-22T05:02:56.235Z,11.27
2022-10-22T05:09:24.941Z,11.31
2022-10-22T05:12:46.453Z,11.24
2022-10-22T05:15:48.227Z,11.23
2022-10-22T05:19:06.435Z,11.27
2022-10-22T05:22:14.460Z,11.23
2022-10-22T05:25:23.085Z,11.22
2022-10-22T05:28:38.429Z,11.16
2022-10-22T05:31:53.434Z,11.20
2022-10-22T05:35:01.447Z,11.25
2022-10-22T05:38:13.035Z,11.28
2022-10-22T05:41:25.457Z,11.25
2022-10-22T05:44:40.436Z,11.31
2022-10-22T05:47:48.995Z,11.34
2022-10-22T05:51:03.668Z,11.35
2022-10-22T05:54:18.581Z,11.39
2022-10-22T05:57:27.492Z,11.45
2022-10-22T06:00:42.468Z,11.42
2022-10-22T06:03:54.155Z,11.45
2022-10-22T06:07:02.484Z,11.45
2022-10-22T06:10:27.533Z,11.47
2022-10-22T06:13:42.500Z,11.48
2022-10-22T06:16:58.453Z,11.44
2022-10-22T06:20:00.346Z,11.43
2022-10-22T06:23:15.530Z,11.52
2022-10-22T06:26:23.483Z,11.49
2022-10-22T06:29:31.991Z,11.48
2022-10-22T06:32:46.454Z,11.55
2022-10-22T06:36:05.296Z,11.56
2022-10-22T06:39:17.624Z,11.67
2022-10-22T06:42:25.494Z,11.74
2022-10-22T06:45:40.560Z,11.83
2022-10-22T06:48:58.499Z,11.85
2022-10-22T06:52:00.388Z,11.87
2022-10-22T06:55:16.490Z,11.97
2022-10-22T06:58:18.309Z,12.11
2022-10-22T07:01:39.560Z,12.29
2022-10-22T07:04:47.492Z,12.39
2022-10-22T07:07:56.090Z,12.48
2022-10-22T07:11:12.459Z,12.43
2022-10-22T07:14:22.171Z,12.52
2022-10-22T07:17:30.607Z,12.59
2022-10-22T07:20:39.071Z,12.50
2022-10-22T07:23:53.526Z,12.48
2022-10-22T07:26:55.375Z,12.37
2022-10-22T07:30:11.514Z,12.30
2022-10-22T07:33:20.448Z,12.26
2022-10-22T07:36:29.158Z,12.28
2022-10-22T07:39:37.520Z,12.14
2022-10-22T07:42:52.493Z,12.07
2022-10-22T07:46:01.180Z,12.31
2022-10-22T07:49:15.508Z,12.43
2022-10-22T07:52:23.488Z,12.56
2022-10-22T07:55:32.867Z,12.70
2022-10-22T07:58:41.494Z,12.73
2022-10-22T08:02:03.587Z,12.76
2022-10-22T08:05:18.487Z,13.04
2022-10-22T08:08:30.455Z,13.18
2022-10-22T08:11:39.504Z,13.19
2022-10-22T08:14:54.574Z,13.34
2022-10-22T08:18:03.095Z,13.30
2022-10-22T08:21:11.578Z,13.46
2022-10-22T08:24:20.244Z,13.66
2022-10-22T08:27:28.570Z,13.84
2022-10-22T08:30:37.647Z,14.30
2022-10-22T08:33:46.530Z,14.71
2022-10-22T08:36:55.605Z,14.59
2022-10-22T08:40:04.536Z,14.57
2022-10-22T08:43:47.494Z,14.49
2022-10-22T08:47:22.763Z,14.50
2022-10-22T08:50:50.583Z,14.57
2022-10-22T08:54:20.533Z,14.56
2022-10-22T08:57:55.521Z,14.35
2022-10-22T09:01:11.691Z,14.27
2022-10-22T09:04:33.598Z,14.33
2022-10-22T09:07:50.526Z,14.29
2022-10-22T09:11:26.609Z,14.44
2022-10-22T09:14:35.111Z,14.48
2022-10-22T09:18:12.576Z,14.42
2022-10-22T09:21:45.547Z,14.54
2022-10-22T09:24:59.552Z,14.42
2022-10-22T09:28:09.899Z,14.36
2022-10-22T09:31:20.570Z,14.32
2022-10-22T09:34:29.820Z,14.58
2022-10-22T09:37:55.599Z,14.64
2022-10-22T09:40:59.934Z,14.75
2022-10-22T09:44:14.579Z,14.86
2022-10-22T09:48:02.470Z,14.92
2022-10-22T09:51:26.616Z,14.94
2022-10-22T09:54:40.134Z,15.03
2022-10-22T09:58:04.584Z,15.15
2022-10-22T10:01:06.324Z,15.36
2022-10-22T10:04:22.626Z,15.09
2022-10-22T10:07:26.923Z,15.10
2022-10-22T10:11:00.611Z,15.24
2022-10-22T10:14:24.600Z,15.16
2022-10-22T10:18:07.620Z,15.30
2022-10-22T10:21:30.760Z,15.37
2022-10-22T10:25:05.621Z,15.55
2022-10-22T10:28:31.141Z,15.67
2022-10-22T10:31:53.601Z,15.62
2022-10-22T10:35:17.197Z,15.50
2022-10-22T10:38:48.621Z,15.54
2022-10-22T10:42:22.575Z,15.68
2022-10-22T10:45:55.590Z,15.71
2022-10-22T10:49:16.607Z,15.76
2022-10-22T10:52:42.640Z,15.87
2022-10-22T10:56:01.290Z,15.88
2022-10-22T10:59:29.663Z,15.94
2022-10-22T11:06:09.659Z,15.96
2022-10-22T11:09:37.664Z,16.01
2022-10-22T11:12:50.659Z,16.03
2022-10-22T11:16:25.720Z,16.03
2022-10-22T11:19:53.003Z,15.97
2022-10-22T11:23:18.738Z,15.94
2022-10-22T11:26:45.656Z,15.94
2022-10-22T11:29:56.065Z,15.92
2022-10-22T11:33:16.606Z,15.87
2022-10-22T11:36:22.477Z,15.99
2022-10-22T11:39:51.607Z,16.17
2022-10-22T11:43:05.685Z,16.21
2022-10-22T11:46:44.631Z,16.31
2022-10-22T11:49:58.936Z,16.47
2022-10-22T11:53:32.641Z,16.59
2022-10-22T11:56:47.695Z,16.72
2022-10-22T11:59:54.275Z,16.73
2022-10-22T12:03:21.635Z,16.78
2022-10-22T12:06:25.506Z,16.82
2022-10-22T12:09:46.666Z,16.96
2022-10-22T12:13:12.597Z,17.04
2022-10-22T12:16:32.091Z,17.13
2022-10-22T12:20:05.672Z,16.85
2022-10-22T12:23:20.619Z,16.69
2022-10-22T12:26:26.145Z,16.50
2022-10-22T12:29:40.760Z,16.31
2022-10-22T12:32:59.623Z,16.29
2022-10-22T12:36:01.432Z,16.23
2022-10-22T12:39:23.651Z,16.09
2022-10-22T12:42:25.492Z,16.12
2022-10-22T12:45:41.715Z,16.15
2022-10-22T12:48:56.688Z,16.10
2022-10-22T12:52:02.863Z,16.09
2022-10-22T12:55:23.680Z,16.12
2022-10-22T12:58:41.197Z,16.09
2022-10-22T13:01:50.663Z,16.09
2022-10-22T13:05:16.351Z,16.10
2022-10-22T13:08:29.725Z,15.96
2022-10-22T13:11:42.667Z,15.91
2022-10-22T13:15:26.664Z,15.94
2022-10-22T13:18:41.702Z,16.06
2022-10-22T13:21:48.766Z,16.06
2022-10-22T13:25:24.679Z,16.00
2022-10-22T13:28:27.347Z,16.00
2022-10-22T13:31:41.860Z,16.06
2022-10-22T13:34:56.723Z,16.09
2022-10-22T13:37:59.655Z,16.17
2022-10-22T13:41:29.691Z,16.24
2022-10-22T13:44:31.441Z,16.27
2022-10-22T13:47:46.680Z,16.28
2022-10-22T13:50:50.056Z,16.27
2022-10-22T13:54:04.699Z,16.15
2022-10-22T13:57:13.292Z,16.16
2022-10-22T14:00:24.749Z,16.15
2022-10-22T14:03:35.607Z,16.11
2022-10-22T14:06:43.704Z,16.13
2022-10-22T14:09:58.693Z,16.14
2022-10-22T14:13:14.687Z,16.18
2022-10-22T14:16:32.719Z,16.15
2022-10-22T14:19:40.729Z,16.15
2022-10-22T14:22:51.236Z,16.11
2022-10-22T14:26:00.784Z,16.12
2022-10-22T14:29:10.570Z,16.03
2022-10-22T14:32:21.767Z,15.92
2022-10-22T14:35:36.736Z,15.92
2022-10-22T14:38:38.542Z,15.90
2022-10-22T14:41:53.731Z,15.91
2022-10-22T14:45:02.756Z,15.92
2022-10-22T14:51:24.458Z,15.75
2022-10-22T14:54:38.743Z,15.85
2022-10-22T14:57:47.732Z,15.83
2022-10-22T15:00:58.492Z,15.80
2022-10-22T15:04:06.802Z,15.77
2022-10-22T15:07:18.291Z,15.78
2022-10-22T15:10:27.745Z,15.78
2022-10-22T15:13:43.021Z,15.75
2022-10-22T15:16:51.788Z,15.65
2022-10-22T15:20:00.676Z,15.64
2022-10-22T15:23:15.763Z,15.59
2022-10-22T15:26:17.901Z,15.54
2022-10-22T15:29:32.761Z,15.53
2022-10-22T15:32:35.583Z,15.47
2022-10-22T15:35:50.841Z,15.43
2022-10-22T15:38:52.938Z,15.38
2022-10-22T15:42:08.767Z,15.35
2022-10-22T15:45:17.759Z,15.30
2022-10-22T15:48:32.810Z,15.24
2022-10-22T15:51:34.795Z,15.20
2022-10-22T15:54:50.754Z,15.17
2022-10-22T15:58:03.366Z,15.03
2022-10-22T16:01:14.299Z,14.95
2022-10-22T16:04:28.809Z,14.92
2022-10-22T16:07:37.902Z,14.89
2022-10-22T16:10:47.044Z,14.86
2022-10-22T16:14:02.798Z,14.44
2022-10-22T16:17:11.378Z,14.66
2022-10-22T16:20:25.759Z,14.61
2022-10-22T16:23:27.779Z,14.49
2022-10-22T16:26:42.807Z,14.44
2022-10-22T16:29:58.816Z,14.19
2022-10-22T16:33:03.420Z,14.00
2022-10-22T16:36:21.812Z,13.98
2022-10-22T16:39:24.287Z,13.84
2022-10-22T16:42:38.793Z,13.81
2022-10-22T16:45:50.079Z,13.83
2022-10-22T16:49:04.791Z,13.82
2022-10-22T16:52:19.751Z,13.82
2022-10-22T16:55:35.812Z,13.85
2022-10-22T16:58:55.793Z,13.82
2022-10-22T17:05:18.685Z,13.85
2022-10-22T17:08:27.884Z,13.75
2022-10-22T17:11:44.935Z,13.72
2022-10-22T17:14:54.084Z,13.64
2022-10-22T17:18:08.783Z,13.67
2022-10-22T17:21:14.067Z,13.61
2022-10-22T17:24:28.822Z,13.55
2022-10-22T17:27:38.968Z,13.57
2022-10-22T17:30:48.061Z,13.60
2022-10-22T17:34:03.844Z,13.59
2022-10-22T17:37:12.595Z,13.68
2022-10-22T17:40:21.899Z,13.63
2022-10-22T17:43:33.161Z,13.53
2022-10-22T17:46:48.849Z,13.59
2022-10-22T17:49:57.651Z,13.62
2022-10-22T17:53:06.852Z,13.58
2022-10-22T17:56:20.355Z,13.59
2022-10-22T17:59:28.840Z,13.44
2022-10-22T18:02:45.013Z,13.42
2022-10-22T18:05:47.209Z,13.37
2022-10-22T18:09:05.858Z,13.42
2022-10-22T18:12:08.207Z,13.35
2022-10-22T18:15:29.858Z,13.25
2022-10-22T18:18:32.239Z,13.30
2022-10-22T18:21:47.866Z,13.34
2022-10-22T18:24:56.931Z,13.28
2022-10-22T18:28:08.855Z,13.24
2022-10-22T18:31:27.876Z,13.32
2022-10-22T18:34:34.042Z,13.29
2022-10-22T18:37:48.943Z,13.21
2022-10-22T18:40:58.594Z,13.20
2022-10-22T18:44:10.859Z,13.25
2022-10-22T18:47:26.926Z,13.20
2022-10-22T18:50:29.111Z,13.15
2022-10-22T18:53:58.899Z,13.07
2022-10-22T18:57:06.609Z,13.04
2022-10-22T19:00:21.876Z,12.96
2022-10-22T19:03:30.842Z,12.91
2022-10-22T19:06:43.115Z,12.81
2022-10-22T19:09:53.868Z,12.88
2022-10-22T19:13:15.903Z,12.84
2022-10-22T19:16:21.004Z,12.83
2022-10-22T19:19:37.884Z,12.81
2022-10-22T19:22:46.856Z,12.72
2022-10-22T19:26:07.022Z,12.70
2022-10-22T19:29:15.849Z,12.64
2022-10-22T19:32:27.520Z,12.58
2022-10-22T19:35:38.892Z,12.50
2022-10-22T19:38:48.891Z,12.48
2022-10-22T19:41:57.879Z,12.40
2022-10-22T19:45:08.515Z,12.40
2022-10-22T19:48:16.989Z,12.38
2022-10-22T19:51:28.567Z,12.39
2022-10-22T19:54:36.919Z,12.31
2022-10-22T19:57:51.920Z,12.26
2022-10-22T20:01:11.910Z,12.26
2022-10-22T20:04:16.428Z,12.31
2022-10-22T20:07:30.992Z,12.22
2022-10-22T20:10:39.919Z,12.21
2022-10-22T20:13:55.704Z,12.13
2022-10-22T20:17:03.914Z,12.10
2022-10-22T20:20:12.898Z,12.11
2022-10-22T20:23:21.899Z,12.04
2022-10-22T20:26:36.926Z,12.02
2022-10-22T20:29:39.423Z,12.03
2022-10-22T20:32:53.947Z,11.98
2022-10-22T20:36:06.946Z,11.98
2022-10-22T20:39:16.308Z,11.99
2022-10-22T20:42:24.906Z,11.92
2022-10-22T20:45:35.815Z,11.86
2022-10-22T20:48:44.928Z,12.05
2022-10-22T20:51:59.993Z,12.16
2022-10-22T20:55:02.019Z,12.14
2022-10-22T20:58:17.012Z,12.10
2022-10-22T21:01:25.998Z,12.04
2022-10-22T21:04:44.034Z,11.98
2022-10-22T21:07:53.955Z,11.98
2022-10-22T21:11:02.597Z,11.95
2022-10-22T21:14:13.061Z,11.89
2022-10-22T21:17:21.456Z,11.88
2022-10-22T21:20:29.973Z,11.87
2022-10-22T21:23:38.900Z,11.82
2022-10-22T21:26:48.951Z,11.80
2022-10-22T21:30:03.933Z,11.81
2022-10-22T21:33:05.933Z,11.76
2022-10-22T21:36:22.957Z,11.68
2022-10-22T21:39:25.075Z,11.61
2022-10-22T21:42:40.984Z,11.58
2022-10-22T21:45:43.534Z,11.55
2022-10-22T21:49:02.027Z,11.54
2022-10-22T21:52:10.963Z,11.58
2022-10-22T21:55:19.431Z,11.64
2022-10-22T21:58:27.968Z,11.70
2022-10-22T22:01:43.024Z,11.73
2022-10-22T22:04:50.959Z,11.71
2022-10-22T22:08:05.946Z,11.75
2022-10-22T22:11:16.774Z,11.76
2022-10-22T22:14:39.016Z,11.82
2022-10-22T22:17:47.739Z,11.79
2022-10-22T22:20:55.975Z,11.73
2022-10-22T22:24:05.462Z,11.57
2022-10-22T22:30:34.931Z,11.43
2022-10-22T22:33:50.955Z,11.44
2022-10-22T22:37:06.960Z,11.41
2022-10-22T22:40:09.208Z,11.39
2022-10-22T22:43:23.979Z,11.40
2022-10-22T22:46:32.000Z,11.38
2022-10-22T22:49:46.966Z,11.41
2022-10-22T22:52:48.731Z,11.42
2022-10-22T22:56:14.955Z,11.45
2022-10-22T22:59:17.128Z,11.50
2022-10-22T23:02:31.989Z,11.55
2022-10-22T23:05:36.965Z,11.57
2022-10-22T23:08:58.277Z,11.56
2022-10-22T23:12:07.023Z,11.59
2022-10-22T23:15:22.277Z,11.68
2022-10-22T23:18:31.032Z,11.68
2022-10-22T23:21:47.959Z,11.73
2022-10-22T23:24:55.995Z,11.75
2022-10-22T23:28:04.765Z,11.72
2022-10-22T23:31:13.031Z,11.66
2022-10-22T23:34:31.038Z,11.61
2022-10-22T23:37:39.199Z,11.52
2022-10-22T23:40:54.313Z,11.48
2022-10-22T23:44:10.033Z,11.44
2022-10-22T23:47:12.847Z,11.41
2022-10-22T23:50:28.059Z,11.41
2022-10-22T23:53:30.078Z,11.46
2022-10-22T23:56:45.035Z,11.41
2022-10-22T23:59:46.878Z,11.45
